createdAt,value
2023-05-19T00:00:10.420Z,10.90
2023-05-19T00:02:53.245Z,10.90
2023-05-19T00:05:22.954Z,10.90
2023-05-19T00:07:52.705Z,10.90
2023-05-19T00:10:20.932Z,10.80
2023-05-19T00:12:49.273Z,10.90
2023-05-19T00:15:17.486Z,10.80
2023-05-19T00:17:45.515Z,10.80
2023-05-19T00:20:15.590Z,10.80
2023-05-19T00:22:43.973Z,10.80
2023-05-19T00:25:11.680Z,10.80
2023-05-19T00:27:39.613Z,10.80
2023-05-19T00:30:09.650Z,10.80
2023-05-19T00:32:37.401Z,10.70
2023-05-19T00:35:05.484Z,10.70
2023-05-19T00:37:34.632Z,10.70
2023-05-19T00:40:02.318Z,10.70
2023-05-19T00:42:32.549Z,10.70
2023-05-19T00:45:00.706Z,10.60
2023-05-19T00:47:28.615Z,10.50
2023-05-19T00:49:56.274Z,10.50
2023-05-19T00:52:24.375Z,10.50
2023-05-19T00:54:56.271Z,10.50
2023-05-19T00:57:24.282Z,10.40
2023-05-19T00:59:52.096Z,10.40
2023-05-19T01:02:19.853Z,10.40
2023-05-19T01:04:48.061Z,10.40
2023-05-19T01:07:16.303Z,10.30
2023-05-19T01:09:44.293Z,10.30
2023-05-19T01:12:13.885Z,10.30
2023-05-19T01:14:42.102Z,10.30
2023-05-19T01:17:20.491Z,10.20
2023-05-19T01:19:57.271Z,10.10
2023-05-19T01:22:42.779Z,10.20
2023-05-19T01:25:37.703Z,10.10
2023-05-19T01:28:26.883Z,10.10
2023-05-19T01:30:56.973Z,10.20
2023-05-19T01:33:25.464Z,10.20
2023-05-19T01:35:56.100Z,10.20
2023-05-19T01:38:26.788Z,10.20
2023-05-19T01:40:56.850Z,10.10
2023-05-19T01:43:27.135Z,10.10
2023-05-19T01:45:58.547Z,10.10
2023-05-19T01:48:26.915Z,10.00
2023-05-19T01:50:57.083Z,9.90
2023-05-19T01:53:25.158Z,9.90
2023-05-19T01:55:57.022Z,9.90
2023-05-19T01:58:37.227Z,9.90
2023-05-19T02:01:22.482Z,9.80
2023-05-19T02:04:07.640Z,9.80
2023-05-19T02:06:42.478Z,9.80
2023-05-19T02:09:19.424Z,9.80
2023-05-19T02:11:54.239Z,9.80
2023-05-19T02:14:26.659Z,9.80
2023-05-19T02:16:58.734Z,9.80
2023-05-19T02:19:28.360Z,9.70
2023-05-19T02:21:57.191Z,9.80
2023-05-19T02:24:25.377Z,9.80
2023-05-19T02:26:54.436Z,9.80
2023-05-19T02:29:22.613Z,9.80
2023-05-19T02:31:51.533Z,9.70
2023-05-19T02:34:21.881Z,9.70
2023-05-19T02:36:50.505Z,9.80
2023-05-19T02:39:18.463Z,9.70
2023-05-19T02:41:46.178Z,9.70
2023-05-19T02:44:13.986Z,9.60
2023-05-19T02:46:41.808Z,9.60
2023-05-19T02:49:09.982Z,9.50
2023-05-19T02:51:39.041Z,9.60
2023-05-19T02:54:07.284Z,9.60
2023-05-19T02:56:34.998Z,9.60
2023-05-19T02:59:03.123Z,9.50
2023-05-19T03:01:32.521Z,9.50
2023-05-19T03:04:00.515Z,9.40
2023-05-19T03:06:29.312Z,9.40
2023-05-19T03:08:58.377Z,9.30
2023-05-19T03:11:26.188Z,9.10
2023-05-19T03:13:53.923Z,9.20
2023-05-19T03:16:21.882Z,9.30
2023-05-19T03:18:49.707Z,9.40
2023-05-19T03:21:17.633Z,9.30
2023-05-19T03:23:45.436Z,9.10
2023-05-19T03:26:14.471Z,9.20
2023-05-19T03:28:42.236Z,9.30
2023-05-19T03:31:09.948Z,9.30
2023-05-19T03:33:40.026Z,9.30
2023-05-19T03:36:08.834Z,9.20
2023-05-19T03:38:39.408Z,9.20
2023-05-19T03:41:07.242Z,9.20
2023-05-19T03:43:36.764Z,9.20
2023-05-19T03:46:06.755Z,9.20
2023-05-19T03:48:54.398Z,9.30
2023-05-19T03:51:42.969Z,9.30
2023-05-19T03:54:23.365Z,9.40
2023-05-19T03:56:52.249Z,9.40
2023-05-19T03:59:21.356Z,9.50
2023-05-19T04:01:52.568Z,9.50
2023-05-19T04:04:21.597Z,9.50
2023-05-19T04:06:49.601Z,9.60
2023-05-19T04:09:17.834Z,9.60
2023-05-19T04:11:45.990Z,9.70
2023-05-19T04:14:13.726Z,9.80
2023-05-19T04:16:43.040Z,9.90
2023-05-19T04:19:10.835Z,9.90
2023-05-19T04:21:38.604Z,9.90
2023-05-19T04:24:06.952Z,10.00
2023-05-19T04:26:37.372Z,10.10
2023-05-19T04:29:05.490Z,10.20
2023-05-19T04:31:34.290Z,10.20
2023-05-19T04:34:04.306Z,10.30
2023-05-19T04:36:33.849Z,10.40
2023-05-19T04:39:05.888Z,10.50
2023-05-19T04:41:34.934Z,10.60
2023-05-19T04:44:04.727Z,10.70
2023-05-19T04:46:32.670Z,10.60
2023-05-19T04:49:01.305Z,10.70
2023-05-19T04:51:31.224Z,10.80
2023-05-19T04:54:01.566Z,10.90
2023-05-19T04:56:29.908Z,10.90
2023-05-19T04:58:58.154Z,11.00
2023-05-19T05:01:28.174Z,11.20
2023-05-19T05:03:58.773Z,11.20
2023-05-19T05:06:28.449Z,11.30
2023-05-19T05:08:58.043Z,11.40
2023-05-19T05:11:27.048Z,11.50
2023-05-19T05:13:57.828Z,11.60
2023-05-19T05:16:27.888Z,11.70
2023-05-19T05:18:58.298Z,11.70
2023-05-19T05:21:27.048Z,11.80
2023-05-19T05:23:55.478Z,11.90
2023-05-19T05:26:31.324Z,12.00
2023-05-19T05:28:59.470Z,12.20
2023-05-19T05:31:27.697Z,12.10
2023-05-19T05:33:56.467Z,12.20
2023-05-19T05:36:28.113Z,12.40
2023-05-19T05:38:55.924Z,12.40
2023-05-19T05:41:24.477Z,12.60
2023-05-19T05:43:55.085Z,12.90
2023-05-19T05:46:22.938Z,13.10
2023-05-19T05:48:51.892Z,13.40
2023-05-19T05:51:22.479Z,13.40
2023-05-19T05:53:54.352Z,13.60
2023-05-19T05:56:33.568Z,13.90
2023-05-19T05:59:04.145Z,13.70
2023-05-19T06:01:34.245Z,13.80
2023-05-19T06:04:04.180Z,14.40
2023-05-19T06:06:32.630Z,14.90
2023-05-19T06:09:03.316Z,15.40
2023-05-19T06:11:33.525Z,15.90
2023-05-19T06:14:01.530Z,16.60
2023-05-19T06:16:48.884Z,17.20
2023-05-19T06:19:19.737Z,17.90
2023-05-19T06:21:48.012Z,18.40
2023-05-19T06:24:16.457Z,19.40
2023-05-19T06:26:45.441Z,19.30
2023-05-19T06:29:20.459Z,20.20
2023-05-19T06:31:52.554Z,21.10
2023-05-19T06:34:22.420Z,21.50
2023-05-19T06:36:50.202Z,21.80
2023-05-19T06:39:20.087Z,22.40
2023-05-19T06:41:47.854Z,22.90
2023-05-19T06:44:35.532Z,22.60
2023-05-19T06:47:04.781Z,23.00
2023-05-19T06:49:32.515Z,22.20
2023-05-19T06:52:00.338Z,22.60
2023-05-19T06:54:28.788Z,22.70
2023-05-19T06:56:58.197Z,23.40
2023-05-19T06:59:25.884Z,24.00
2023-05-19T07:01:53.963Z,24.90
2023-05-19T07:04:23.228Z,25.60
2023-05-19T07:06:51.038Z,26.10
2023-05-19T07:09:18.995Z,25.90
2023-05-19T07:11:47.839Z,26.70
2023-05-19T07:14:15.638Z,27.40
2023-05-19T07:16:43.504Z,27.80
2023-05-19T07:19:11.324Z,28.40
2023-05-19T07:21:42.259Z,28.50
2023-05-19T07:24:10.011Z,28.10
2023-05-19T07:26:37.768Z,28.60
2023-05-19T07:29:05.732Z,28.30
2023-05-19T07:31:33.779Z,28.20
2023-05-19T07:34:02.387Z,28.40
2023-05-19T07:36:30.111Z,27.80
2023-05-19T07:39:00.548Z,27.50
2023-05-19T07:41:28.347Z,27.00
2023-05-19T07:43:56.117Z,27.10
2023-05-19T07:46:26.795Z,27.60
2023-05-19T07:48:54.739Z,27.30
2023-05-19T07:51:24.752Z,26.70
2023-05-19T07:53:53.680Z,26.30
2023-05-19T07:56:25.653Z,25.30
2023-05-19T07:58:54.606Z,24.60
2023-05-19T08:01:22.341Z,24.00
2023-05-19T08:03:50.155Z,23.80
2023-05-19T08:06:20.627Z,23.60
2023-05-19T08:08:48.347Z,23.40
2023-05-19T08:11:17.615Z,24.00
2023-05-19T08:13:50.731Z,23.90
2023-05-19T08:16:19.838Z,23.30
2023-05-19T08:18:48.857Z,22.80
2023-05-19T08:21:16.612Z,23.50
2023-05-19T08:23:44.370Z,23.80
2023-05-19T08:26:13.281Z,23.70
2023-05-19T08:28:42.370Z,24.00
2023-05-19T08:31:11.572Z,24.20
2023-05-19T08:33:40.637Z,24.00
2023-05-19T08:36:08.961Z,23.30
2023-05-19T08:38:39.129Z,23.30
2023-05-19T08:41:08.414Z,23.30
2023-05-19T08:43:40.391Z,23.60
2023-05-19T08:46:08.715Z,23.70
2023-05-19T08:48:43.111Z,23.10
2023-05-19T08:51:18.141Z,22.20
2023-05-19T08:53:51.158Z,21.60
2023-05-19T08:56:22.874Z,21.00
2023-05-19T08:58:53.565Z,20.70
2023-05-19T09:01:24.385Z,20.80
2023-05-19T09:03:55.432Z,21.10
2023-05-19T09:06:25.513Z,21.10
2023-05-19T09:08:53.177Z,21.20
2023-05-19T09:11:22.511Z,21.50
2023-05-19T09:13:50.559Z,22.20
2023-05-19T09:16:18.492Z,22.70
2023-05-19T09:19:00.070Z,22.80
2023-05-19T09:21:31.316Z,22.70
2023-05-19T09:24:06.755Z,22.30
2023-05-19T09:26:40.845Z,21.80
2023-05-19T09:29:17.444Z,21.40
2023-05-19T09:31:49.947Z,21.00
2023-05-19T09:34:19.483Z,20.60
2023-05-19T09:36:50.559Z,20.20
2023-05-19T09:39:19.840Z,20.20
2023-05-19T09:41:49.648Z,20.30
2023-05-19T09:44:24.721Z,20.40
2023-05-19T09:46:55.046Z,20.10
2023-05-19T09:49:25.328Z,19.90
2023-05-19T09:51:56.707Z,20.10
2023-05-19T09:54:29.323Z,20.20
2023-05-19T09:57:01.075Z,20.30
2023-05-19T09:59:33.367Z,20.50
2023-05-19T10:02:02.527Z,20.50
2023-05-19T10:04:34.153Z,20.50
2023-05-19T10:07:05.496Z,20.20
2023-05-19T10:09:37.178Z,20.00
2023-05-19T10:12:07.299Z,20.10
2023-05-19T10:14:35.167Z,20.20
2023-05-19T10:17:03.062Z,20.20
2023-05-19T10:19:32.328Z,20.20
2023-05-19T10:22:00.239Z,20.40
2023-05-19T10:24:28.056Z,20.40
2023-05-19T10:27:01.880Z,20.30
2023-05-19T10:29:32.597Z,20.10
2023-05-19T10:32:07.746Z,20.00
2023-05-19T10:34:57.091Z,19.80
2023-05-19T10:37:35.318Z,19.90
2023-05-19T10:40:13.455Z,19.80
2023-05-19T10:42:52.665Z,19.60
2023-05-19T10:45:24.478Z,19.50
2023-05-19T10:47:57.113Z,19.70
2023-05-19T10:50:27.477Z,19.70
2023-05-19T10:53:00.041Z,19.60
2023-05-19T10:55:45.899Z,19.60
2023-05-19T10:58:14.208Z,19.50
2023-05-19T11:00:42.671Z,19.60
2023-05-19T11:03:14.959Z,19.50
2023-05-19T11:05:45.570Z,19.50
2023-05-19T11:08:14.222Z,19.40
2023-05-19T11:10:46.120Z,19.30
2023-05-19T11:13:23.061Z,19.10
2023-05-19T11:15:51.627Z,19.00
2023-05-19T11:18:21.151Z,19.00
2023-05-19T11:20:59.031Z,18.90
2023-05-19T11:23:27.806Z,18.70
2023-05-19T11:25:58.308Z,18.70
2023-05-19T11:28:27.982Z,18.70
2023-05-19T11:30:58.970Z,18.90
2023-05-19T11:33:29.990Z,19.20
2023-05-19T11:35:59.282Z,19.30
2023-05-19T11:38:29.733Z,19.30
2023-05-19T11:41:00.177Z,19.40
2023-05-19T11:43:29.303Z,19.40
2023-05-19T11:45:58.736Z,19.20
2023-05-19T11:48:27.696Z,19.10
2023-05-19T11:50:56.746Z,19.10
2023-05-19T11:53:26.331Z,19.20
2023-05-19T11:55:56.779Z,19.10
2023-05-19T11:58:27.978Z,19.00
2023-05-19T12:00:56.614Z,19.00
2023-05-19T12:03:28.093Z,18.90
2023-05-19T12:05:56.628Z,18.80
2023-05-19T12:08:27.018Z,18.90
2023-05-19T12:10:58.373Z,18.90
2023-05-19T12:13:26.654Z,19.00
2023-05-19T12:15:54.652Z,19.10
2023-05-19T12:18:22.725Z,19.30
2023-05-19T12:20:51.123Z,19.20
2023-05-19T12:23:21.799Z,19.20
2023-05-19T12:25:52.873Z,19.10
2023-05-19T12:28:21.805Z,18.80
2023-05-19T12:30:52.529Z,18.60
2023-05-19T12:33:24.707Z,18.50
2023-05-19T12:35:52.909Z,18.30
2023-05-19T12:38:21.464Z,18.30
2023-05-19T12:40:52.800Z,18.30
2023-05-19T12:43:23.201Z,18.30
2023-05-19T12:45:52.504Z,18.30
2023-05-19T12:48:25.711Z,18.40
2023-05-19T12:50:56.589Z,18.40
2023-05-19T12:53:28.250Z,18.30
2023-05-19T12:56:00.856Z,18.10
2023-05-19T12:58:36.090Z,18.20
2023-05-19T13:01:06.158Z,18.10
2023-05-19T13:03:34.265Z,18.10
2023-05-19T13:06:04.746Z,18.20
2023-05-19T13:08:33.820Z,18.20
2023-05-19T13:11:04.639Z,18.20
2023-05-19T13:13:32.872Z,18.30
2023-05-19T13:16:01.265Z,18.20
2023-05-19T13:18:33.570Z,18.30
2023-05-19T13:21:04.022Z,18.30
2023-05-19T13:23:32.019Z,18.30
2023-05-19T13:26:00.205Z,18.40
2023-05-19T13:28:30.093Z,18.40
2023-05-19T13:30:58.216Z,18.40
2023-05-19T13:33:27.755Z,18.40
2023-05-19T13:35:56.750Z,18.50
2023-05-19T13:38:25.090Z,18.40
2023-05-19T13:40:53.279Z,18.40
2023-05-19T13:43:21.582Z,18.50
2023-05-19T13:45:50.925Z,18.50
2023-05-19T13:48:19.097Z,18.60
2023-05-19T13:50:47.125Z,18.40
2023-05-19T13:53:15.452Z,18.40
2023-05-19T13:55:43.489Z,18.60
2023-05-19T13:58:12.542Z,18.70
2023-05-19T14:00:40.855Z,18.90
2023-05-19T14:03:10.518Z,19.10
2023-05-19T14:05:38.620Z,19.20
2023-05-19T14:08:08.517Z,19.30
2023-05-19T14:10:36.531Z,19.40
2023-05-19T14:13:30.270Z,19.30
2023-05-19T14:15:54.379Z,19.20
2023-05-19T14:18:28.355Z,19.20
2023-05-19T14:20:56.457Z,19.00
2023-05-19T14:23:24.538Z,19.10
2023-05-19T14:25:52.677Z,19.10
2023-05-19T14:28:20.735Z,18.90
2023-05-19T14:30:49.282Z,18.80
2023-05-19T14:33:17.576Z,18.50
2023-05-19T14:35:46.983Z,18.40
2023-05-19T14:38:15.118Z,18.20
2023-05-19T14:40:43.924Z,18.20
2023-05-19T14:43:13.796Z,18.00
2023-05-19T14:45:42.794Z,18.10
2023-05-19T14:48:12.329Z,18.10
2023-05-19T14:50:40.361Z,18.20
2023-05-19T14:53:11.103Z,18.40
2023-05-19T14:55:39.152Z,18.60
2023-05-19T14:58:19.750Z,18.70
2023-05-19T15:00:55.630Z,18.70
2023-05-19T15:03:27.225Z,18.70
2023-05-19T15:05:56.792Z,18.50
2023-05-19T15:08:27.454Z,18.40
2023-05-19T15:10:55.822Z,18.30
2023-05-19T15:13:23.669Z,18.40
2023-05-19T15:16:08.402Z,18.30
2023-05-19T15:18:45.313Z,18.30
2023-05-19T15:21:13.728Z,18.20
2023-05-19T15:23:43.461Z,18.30
2023-05-19T15:26:13.307Z,18.30
2023-05-19T15:28:41.130Z,18.20
2023-05-19T15:31:09.155Z,18.20
2023-05-19T15:33:37.149Z,18.20
2023-05-19T15:36:07.411Z,18.20
2023-05-19T15:38:36.849Z,18.20
2023-05-19T15:41:09.497Z,18.20
2023-05-19T15:43:41.390Z,18.30
2023-05-19T15:46:14.903Z,18.30
2023-05-19T15:48:42.975Z,18.40
2023-05-19T15:51:11.438Z,18.40
2023-05-19T15:53:39.514Z,18.50
2023-05-19T15:56:08.985Z,18.60
2023-05-19T15:58:37.103Z,18.60
2023-05-19T16:01:05.564Z,18.70
2023-05-19T16:03:33.784Z,18.70
2023-05-19T16:06:01.873Z,18.60
2023-05-19T16:08:30.209Z,18.80
2023-05-19T16:10:58.247Z,18.70
2023-05-19T16:13:27.680Z,18.70
2023-05-19T16:15:56.073Z,18.70
2023-05-19T16:18:24.518Z,18.60
2023-05-19T16:20:52.668Z,18.60
2023-05-19T16:23:23.718Z,18.60
2023-05-19T16:25:53.150Z,18.60
2023-05-19T16:28:24.969Z,18.50
2023-05-19T16:31:02.106Z,18.40
2023-05-19T16:33:30.995Z,18.40
2023-05-19T16:35:59.765Z,18.40
2023-05-19T16:38:28.682Z,18.50
2023-05-19T16:40:56.873Z,18.30
2023-05-19T16:43:24.904Z,18.30
2023-05-19T16:45:52.976Z,18.30
2023-05-19T16:48:22.346Z,18.40
2023-05-19T16:50:50.671Z,18.40
2023-05-19T16:53:20.376Z,18.30
2023-05-19T16:55:48.607Z,18.20
2023-05-19T16:58:17.628Z,18.10
2023-05-19T17:00:45.848Z,18.10
2023-05-19T17:03:15.068Z,18.10
2023-05-19T17:05:46.701Z,18.10
2023-05-19T17:08:14.837Z,18.10
2023-05-19T17:10:44.674Z,18.00
2023-05-19T17:13:14.327Z,18.10
2023-05-19T17:15:43.558Z,18.00
2023-05-19T17:18:12.455Z,18.00
2023-05-19T17:20:42.949Z,17.90
2023-05-19T17:23:12.374Z,18.00
2023-05-19T17:25:41.142Z,18.00
2023-05-19T17:28:11.217Z,18.00
2023-05-19T17:30:41.517Z,18.00
2023-05-19T17:33:09.773Z,18.10
2023-05-19T17:35:37.653Z,18.10
2023-05-19T17:38:05.787Z,18.10
2023-05-19T17:40:35.745Z,18.00
2023-05-19T17:43:04.202Z,18.00
2023-05-19T17:45:31.941Z,18.10
2023-05-19T17:48:00.256Z,18.00
2023-05-19T17:50:28.524Z,17.70
2023-05-19T17:52:56.817Z,17.60
2023-05-19T17:55:29.719Z,17.50
2023-05-19T17:57:59.827Z,17.60
2023-05-19T18:00:28.229Z,17.70
2023-05-19T18:02:57.786Z,17.70
2023-05-19T18:05:26.496Z,17.70
2023-05-19T18:07:55.283Z,17.80
2023-05-19T18:10:27.072Z,17.90
2023-05-19T18:12:55.209Z,17.80
2023-05-19T18:15:26.522Z,17.80
2023-05-19T18:17:56.525Z,17.80
2023-05-19T18:20:25.998Z,17.80
2023-05-19T18:22:54.168Z,17.90
2023-05-19T18:25:24.498Z,17.90
2023-05-19T18:27:55.646Z,17.80
2023-05-19T18:30:25.566Z,17.80
2023-05-19T18:32:53.712Z,17.80
2023-05-19T18:35:23.151Z,17.70
2023-05-19T18:37:56.407Z,17.70
2023-05-19T18:40:26.039Z,17.70
2023-05-19T18:42:56.546Z,17.60
2023-05-19T18:45:27.294Z,17.50
2023-05-19T18:47:59.763Z,17.30
2023-05-19T18:50:29.247Z,17.20
2023-05-19T18:52:57.420Z,17.20
2023-05-19T18:55:25.641Z,17.20
2023-05-19T18:57:54.166Z,17.10
2023-05-19T19:00:22.712Z,17.10
2023-05-19T19:02:52.297Z,17.00
2023-05-19T19:05:20.527Z,17.00
2023-05-19T19:07:49.333Z,16.90
2023-05-19T19:10:17.715Z,16.90
2023-05-19T19:12:46.106Z,16.70
2023-05-19T19:15:14.250Z,16.70
2023-05-19T19:17:42.529Z,16.50
2023-05-19T19:20:16.037Z,16.40
2023-05-19T19:22:45.759Z,16.30
2023-05-19T19:25:14.806Z,16.20
2023-05-19T19:27:42.908Z,16.20
2023-05-19T19:30:11.359Z,16.00
2023-05-19T19:32:42.453Z,15.90
2023-05-19T19:35:13.954Z,15.80
2023-05-19T19:37:43.513Z,15.60
2023-05-19T19:40:13.015Z,15.50
2023-05-19T19:42:42.173Z,15.40
2023-05-19T19:45:13.083Z,15.20
2023-05-19T19:47:43.498Z,15.20
2023-05-19T19:50:15.680Z,15.00
2023-05-19T19:52:43.666Z,14.60
2023-05-19T19:55:11.700Z,14.50
2023-05-19T19:57:39.729Z,14.50
2023-05-19T20:00:09.121Z,14.60
2023-05-19T20:02:45.523Z,14.60
2023-05-19T20:05:25.006Z,14.70
2023-05-19T20:07:56.479Z,14.80
2023-05-19T20:10:25.853Z,14.90
2023-05-19T20:12:55.229Z,14.80
2023-05-19T20:15:23.803Z,14.80
2023-05-19T20:17:51.681Z,14.80
2023-05-19T20:20:19.770Z,14.80
2023-05-19T20:22:50.854Z,14.80
2023-05-19T20:25:18.806Z,14.80
2023-05-19T20:27:46.787Z,14.80
2023-05-19T20:30:14.626Z,14.70
2023-05-19T20:32:42.366Z,14.70
2023-05-19T20:35:12.306Z,14.60
2023-05-19T20:37:40.946Z,14.60
2023-05-19T20:40:13.254Z,14.50
2023-05-19T20:42:42.596Z,14.50
2023-05-19T20:45:10.851Z,14.50
2023-05-19T20:47:40.011Z,14.40
2023-05-19T20:50:10.003Z,14.40
2023-05-19T20:52:38.425Z,14.30
2023-05-19T20:55:09.955Z,14.30
2023-05-19T20:57:38.783Z,14.20
2023-05-19T21:00:11.404Z,14.20
2023-05-19T21:02:39.376Z,14.20
2023-05-19T21:05:07.598Z,14.20
2023-05-19T21:07:35.441Z,14.20
2023-05-19T21:10:03.361Z,14.10
2023-05-19T21:12:34.256Z,14.10
2023-05-19T21:15:03.523Z,14.10
2023-05-19T21:17:31.417Z,14.10
2023-05-19T21:20:00.263Z,14.10
2023-05-19T21:22:28.612Z,14.20
2023-05-19T21:24:57.135Z,14.20
2023-05-19T21:27:25.034Z,14.20
2023-05-19T21:29:54.696Z,14.20
2023-05-19T21:32:23.562Z,14.10
2023-05-19T21:34:51.726Z,14.10
2023-05-19T21:37:21.072Z,14.00
2023-05-19T21:39:49.110Z,14.00
2023-05-19T21:42:17.298Z,14.00
2023-05-19T21:44:45.589Z,13.90
2023-05-19T21:47:15.193Z,13.90
2023-05-19T21:49:43.314Z,13.90
2023-05-19T21:52:11.169Z,13.90
2023-05-19T21:54:39.166Z,13.80
2023-05-19T21:57:07.024Z,13.70
2023-05-19T21:59:35.032Z,13.70
2023-05-19T22:02:03.196Z,13.70
2023-05-19T22:04:32.665Z,13.70
2023-05-19T22:07:00.923Z,13.70
2023-05-19T22:09:29.071Z,13.70
2023-05-19T22:11:57.144Z,13.70
2023-05-19T22:14:25.152Z,13.80
2023-05-19T22:16:53.270Z,13.80
2023-05-19T22:19:21.473Z,13.70
2023-05-19T22:21:58.418Z,13.70
2023-05-19T22:24:30.819Z,13.70
2023-05-19T22:26:58.630Z,13.70
2023-05-19T22:29:26.592Z,13.70
2023-05-19T22:31:55.379Z,13.70
2023-05-19T22:34:25.531Z,13.70
2023-05-19T22:36:55.299Z,13.60
2023-05-19T22:39:23.268Z,13.50
2023-05-19T22:41:51.292Z,13.30
2023-05-19T22:44:19.795Z,13.10
2023-05-19T22:46:47.836Z,13.10
2023-05-19T22:49:15.958Z,13.10
2023-05-19T22:51:43.929Z,13.10
2023-05-19T22:54:13.359Z,13.20
2023-05-19T22:56:44.335Z,13.20
2023-05-19T22:59:13.210Z,13.10
2023-05-19T23:01:41.325Z,13.10
2023-05-19T23:04:09.338Z,13.10
2023-05-19T23:06:37.585Z,13.10
2023-05-19T23:09:05.794Z,13.10
2023-05-19T23:11:35.853Z,13.00
2023-05-19T23:14:03.957Z,13.00
2023-05-19T23:16:32.076Z,13.00
2023-05-19T23:19:00.076Z,13.00
2023-05-19T23:21:28.181Z,13.00
2023-05-19T23:23:56.082Z,13.00
2023-05-19T23:26:24.111Z,13.00
2023-05-19T23:28:53.337Z,12.90
2023-05-19T23:31:21.479Z,12.90
2023-05-19T23:33:49.410Z,12.80
2023-05-19T23:36:17.756Z,12.80
2023-05-19T23:38:45.731Z,12.80
2023-05-19T23:41:13.698Z,12.80
2023-05-19T23:43:41.659Z,12.70
2023-05-19T23:46:11.048Z,12.70
2023-05-19T23:48:40.971Z,12.60
2023-05-19T23:51:09.093Z,12.60
2023-05-19T23:53:37.400Z,12.70
2023-05-19T23:56:06.172Z,12.60
2023-05-19T23:58:34.256Z,12.60
